Anjeliersgracht — PCGQ — position and weather

sailwx.info

Track history (hours):
 
Tides and Currents Weather Stations Pressure Air Temp Water Temp Dewpoint Dewpoint Depression Visibility Wind Speed Wind Dir Waves Ship Positions

Anjeliersgracht

Last reported at 2014-Dec-18 17:28 UTC. Time now 2014-Dec-19 09:23 UTC.
Position N 43°41' W 005°49'.

Length 130 m; beam 19 m; draft 9 m.

Type: Cargo ship. MMSI: 244716000.

Date/timePositionNaut miles runAvg speedWind from/ knotsBaromVisibWave heightAir tempDewpointWater temp
2014-Dec-18 17:28N 43°41' W 005°49'9 9.4
2014-Dec-18 16:33N 43°35' W 005°40'2 0.3
2014-Dec-18 10:03N 43°34' W 005°42'0 0.0
2014-Dec-18 09:03N 43°34' W 005°42'0 0.0
2014-Dec-18 04:21N 43°34' W 005°42'0 0.0
2014-Dec-17 10:21N 43°34' W 005°42'0 0.0
2014-Dec-17 09:26N 43°34' W 005°42'0 0.0
2014-Dec-17 03:14N 43°34' W 005°42'0 0.0
2014-Dec-17 02:14N 43°34' W 005°42'0 0.0
2014-Dec-17 01:32N 43°34' W 005°42'0 0.0
2014-Dec-16 23:32N 43°34' W 005°42'0 0.0
2014-Dec-16 19:14N 43°34' W 005°42'0 0.0
2014-Dec-16 18:32N 43°34' W 005°42'0 0.0
2014-Dec-15 19:13N 43°34' W 005°42'  
2014-Dec-10 10:33N 50°36' E 000°26'1110.9
2014-Dec-10 09:33N 50°41' E 000°41'1312.5
2014-Dec-10 08:29N 50°48' E 000°59'1313.6
2014-Dec-10 07:33N 50°57' E 001°14'1312.7
2014-Dec-10 06:33N 51°05' E 001°30'10 9.6
2014-Dec-10 05:34N 51°11' E 001°41'9 8.6
2014-Dec-10 04:33N 51°18' E 001°50'8 7.7
2014-Dec-10 03:33N 51°24' E 001°57'7 6.8
2014-Dec-10 02:33N 51°23' E 002°08'8 8.1
2014-Dec-10 01:31N 51°21' E 002°21'9 9.6
2014-Dec-10 00:33N 51°23' E 002°36'1110.9
2014-Dec-09 23:33N 51°23' E 002°53'1312.8
2014-Dec-09 22:33N 51°25' E 003°13'1414.0
2014-Dec-09 21:34N 51°26' E 003°36'1110.6
2014-Dec-09 20:33N 51°21' E 003°51'1110.9
2014-Dec-09 19:33N 51°22' E 004°08'6 5.9
2014-Dec-09 18:34N 51°21' E 004°17'0 0.1
2014-Dec-09 17:34N 51°21' E 004°17'5 5.3
2014-Dec-09 16:33N 51°16' E 004°21'2 1.6
2014-Dec-09 15:31N 51°15' E 004°23'0 0.0
2014-Dec-09 14:31N 51°15' E 004°23'0 0.0
2014-Dec-09 13:31N 51°15' E 004°23'0 0.0
2014-Dec-09 12:31N 51°15' E 004°23'0 0.0
2014-Dec-09 11:34N 51°15' E 004°23'0 0.0
2014-Dec-09 10:33N 51°15' E 004°23'0 0.0
2014-Dec-09 09:33N 51°15' E 004°23'0 0.0
2014-Dec-09 08:33N 51°15' E 004°23'0 0.0
2014-Dec-09 07:33N 51°15' E 004°23'0 0.0
2014-Dec-09 06:33N 51°15' E 004°23'0 0.0
2014-Dec-09 05:33N 51°15' E 004°23'0 0.0
2014-Dec-09 04:33N 51°15' E 004°23'0 0.0
2014-Dec-09 03:33N 51°15' E 004°23'0 0.0
2014-Dec-09 02:33N 51°15' E 004°23'0 0.0
2014-Dec-09 01:33N 51°15' E 004°23'0 0.0
2014-Dec-09 00:33N 51°15' E 004°23'0 0.0
2014-Dec-08 23:33N 51°15' E 004°23'0 0.0
2014-Dec-08 22:33N 51°15' E 004°23'0 0.0
2014-Dec-08 21:33N 51°15' E 004°23'0 0.0
2014-Dec-08 20:33N 51°15' E 004°23'0 0.0
2014-Dec-08 19:33N 51°15' E 004°23'0 0.0
2014-Dec-08 18:33N 51°15' E 004°23'0 0.0
2014-Dec-08 17:33N 51°15' E 004°23'  
Track history (hours):
 
Tides and Currents Weather Stations Pressure Air Temp Water Temp Dewpoint Dewpoint Depression Visibility Wind Speed Wind Dir Waves Ship Positions

Anjeliersgracht

Last reported at 2014-Dec-18 17:28 UTC. Time now 2014-Dec-19 09:23 UTC.
Position N 43°41' W 005°49'.

Length 130 m; beam 19 m; draft 9 m.

Type: Cargo ship. MMSI: 244716000.

Date/timePositionNaut miles runAvg speedWind from/ knotsBaromVisibWave heightAir tempDewpointWater temp
2014-Dec-18 17:28N 43°41' W 005°49'9 9.4
2014-Dec-18 16:33N 43°35' W 005°40'2 0.3
2014-Dec-18 10:03N 43°34' W 005°42'0 0.0
2014-Dec-18 09:03N 43°34' W 005°42'0 0.0
2014-Dec-18 04:21N 43°34' W 005°42'0 0.0
2014-Dec-17 10:21N 43°34' W 005°42'0 0.0
2014-Dec-17 09:26N 43°34' W 005°42'0 0.0
2014-Dec-17 03:14N 43°34' W 005°42'0 0.0
2014-Dec-17 02:14N 43°34' W 005°42'0 0.0
2014-Dec-17 01:32N 43°34' W 005°42'0 0.0
2014-Dec-16 23:32N 43°34' W 005°42'0 0.0
2014-Dec-16 19:14N 43°34' W 005°42'0 0.0
2014-Dec-16 18:32N 43°34' W 005°42'0 0.0
2014-Dec-15 19:13N 43°34' W 005°42'  
2014-Dec-10 10:33N 50°36' E 000°26'1110.9
2014-Dec-10 09:33N 50°41' E 000°41'1312.5
2014-Dec-10 08:29N 50°48' E 000°59'1313.6
2014-Dec-10 07:33N 50°57' E 001°14'1312.7
2014-Dec-10 06:33N 51°05' E 001°30'10 9.6
2014-Dec-10 05:34N 51°11' E 001°41'9 8.6
2014-Dec-10 04:33N 51°18' E 001°50'8 7.7
2014-Dec-10 03:33N 51°24' E 001°57'7 6.8
2014-Dec-10 02:33N 51°23' E 002°08'8 8.1
2014-Dec-10 01:31N 51°21' E 002°21'9 9.6
2014-Dec-10 00:33N 51°23' E 002°36'1110.9
2014-Dec-09 23:33N 51°23' E 002°53'1312.8
2014-Dec-09 22:33N 51°25' E 003°13'1414.0
2014-Dec-09 21:34N 51°26' E 003°36'1110.6
2014-Dec-09 20:33N 51°21' E 003°51'1110.9
2014-Dec-09 19:33N 51°22' E 004°08'6 5.9
2014-Dec-09 18:34N 51°21' E 004°17'0 0.1
2014-Dec-09 17:34N 51°21' E 004°17'5 5.3
2014-Dec-09 16:33N 51°16' E 004°21'2 1.6
2014-Dec-09 15:31N 51°15' E 004°23'0 0.0
2014-Dec-09 14:31N 51°15' E 004°23'0 0.0
2014-Dec-09 13:31N 51°15' E 004°23'0 0.0
2014-Dec-09 12:31N 51°15' E 004°23'0 0.0
2014-Dec-09 11:34N 51°15' E 004°23'0 0.0
2014-Dec-09 10:33N 51°15' E 004°23'0 0.0
2014-Dec-09 09:33N 51°15' E 004°23'0 0.0
2014-Dec-09 08:33N 51°15' E 004°23'0 0.0
2014-Dec-09 07:33N 51°15' E 004°23'0 0.0
2014-Dec-09 06:33N 51°15' E 004°23'0 0.0
2014-Dec-09 05:33N 51°15' E 004°23'0 0.0
2014-Dec-09 04:33N 51°15' E 004°23'0 0.0
2014-Dec-09 03:33N 51°15' E 004°23'0 0.0
2014-Dec-09 02:33N 51°15' E 004°23'0 0.0
2014-Dec-09 01:33N 51°15' E 004°23'0 0.0
2014-Dec-09 00:33N 51°15' E 004°23'0 0.0
2014-Dec-08 23:33N 51°15' E 004°23'0 0.0
2014-Dec-08 22:33N 51°15' E 004°23'0 0.0
2014-Dec-08 21:33N 51°15' E 004°23'0 0.0
2014-Dec-08 20:33N 51°15' E 004°23'0 0.0
2014-Dec-08 19:33N 51°15' E 004°23'0 0.0
2014-Dec-08 18:33N 51°15' E 004°23'0 0.0
2014-Dec-08 17:33N 51°15' E 004°23'  

Dump ship's entire track history